sensor_id;sensor_type;location;lat;lon;timestamp;P1;durP1;ratioP1;P2;durP2;ratioP2
57317;SDS011;43157;50.982;18.132;2022-12-31T00:00:34;31.70;;;13.00;;
57317;SDS011;43157;50.982;18.132;2022-12-31T00:03:02;29.30;;;12.40;;
57317;SDS011;43157;50.982;18.132;2022-12-31T00:05:29;27.40;;;11.50;;
57317;SDS011;43157;50.982;18.132;2022-12-31T00:07:56;27.10;;;10.50;;
57317;SDS011;43157;50.982;18.132;2022-12-31T00:10:22;26.10;;;10.50;;
57317;SDS011;43157;50.982;18.132;2022-12-31T00:12:47;26.00;;;9.40;;
57317;SDS011;43157;50.982;18.132;2022-12-31T00:15:13;27.40;;;10.50;;
57317;SDS011;43157;50.982;18.132;2022-12-31T00:17:38;23.80;;;9.80;;
57317;SDS011;43157;50.982;18.132;2022-12-31T00:20:05;25.50;;;9.90;;
57317;SDS011;43157;50.982;18.132;2022-12-31T00:22:32;26.20;;;10.30;;
57317;SDS011;43157;50.982;18.132;2022-12-31T00:24:58;24.90;;;8.90;;
57317;SDS011;43157;50.982;18.132;2022-12-31T00:27:23;26.70;;;11.10;;
57317;SDS011;43157;50.982;18.132;2022-12-31T00:29:49;23.60;;;10.00;;
57317;SDS011;43157;50.982;18.132;2022-12-31T00:32:14;24.60;;;10.10;;
57317;SDS011;43157;50.982;18.132;2022-12-31T00:34:40;23.70;;;8.70;;
57317;SDS011;43157;50.982;18.132;2022-12-31T00:37:05;24.70;;;9.30;;
57317;SDS011;43157;50.982;18.132;2022-12-31T00:39:31;29.50;;;10.50;;
57317;SDS011;43157;50.982;18.132;2022-12-31T00:41:56;33.40;;;13.40;;
57317;SDS011;43157;50.982;18.132;2022-12-31T00:44:22;32.00;;;12.90;;
57317;SDS011;43157;50.982;18.132;2022-12-31T00:46:47;26.60;;;9.20;;
57317;SDS011;43157;50.982;18.132;2022-12-31T00:49:13;25.40;;;9.40;;
57317;SDS011;43157;50.982;18.132;2022-12-31T00:51:39;26.80;;;9.70;;
57317;SDS011;43157;50.982;18.132;2022-12-31T00:54:05;23.70;;;8.60;;
57317;SDS011;43157;50.982;18.132;2022-12-31T00:56:31;26.50;;;10.70;;
57317;SDS011;43157;50.982;18.132;2022-12-31T00:58:57;20.70;;;8.20;;
57317;SDS011;43157;50.982;18.132;2022-12-31T01:01:25;30.60;;;9.30;;
57317;SDS011;43157;50.982;18.132;2022-12-31T01:03:54;28.40;;;10.00;;
57317;SDS011;43157;50.982;18.132;2022-12-31T01:06:22;25.40;;;12.30;;
57317;SDS011;43157;50.982;18.132;2022-12-31T01:08:49;25.70;;;9.80;;
57317;SDS011;43157;50.982;18.132;2022-12-31T01:11:15;23.90;;;9.80;;
57317;SDS011;43157;50.982;18.132;2022-12-31T01:13:47;19.20;;;7.10;;
57317;SDS011;43157;50.982;18.132;2022-12-31T01:16:26;19.50;;;8.60;;
57317;SDS011;43157;50.982;18.132;2022-12-31T01:18:54;29.80;;;10.70;;
57317;SDS011;43157;50.982;18.132;2022-12-31T01:21:20;20.80;;;8.80;;
57317;SDS011;43157;50.982;18.132;2022-12-31T01:23:46;17.00;;;6.70;;
57317;SDS011;43157;50.982;18.132;2022-12-31T01:26:12;20.00;;;8.20;;
57317;SDS011;43157;50.982;18.132;2022-12-31T01:28:39;22.10;;;9.90;;
57317;SDS011;43157;50.982;18.132;2022-12-31T01:31:05;22.60;;;9.00;;
57317;SDS011;43157;50.982;18.132;2022-12-31T01:33:36;20.50;;;8.40;;
57317;SDS011;43157;50.982;18.132;2022-12-31T01:36:09;19.90;;;7.70;;
57317;SDS011;43157;50.982;18.132;2022-12-31T01:38:37;19.30;;;7.80;;
57317;SDS011;43157;50.982;18.132;2022-12-31T01:41:03;23.00;;;9.00;;
57317;SDS011;43157;50.982;18.132;2022-12-31T01:49:02;19.20;;;7.80;;
57317;SDS011;43157;50.982;18.132;2022-12-31T01:51:33;20.30;;;8.70;;
57317;SDS011;43157;50.982;18.132;2022-12-31T01:53:59;20.90;;;8.80;;
57317;SDS011;43157;50.982;18.132;2022-12-31T01:56:28;19.70;;;8.00;;
57317;SDS011;43157;50.982;18.132;2022-12-31T01:58:54;20.30;;;8.50;;
57317;SDS011;43157;50.982;18.132;2022-12-31T02:01:23;22.50;;;9.50;;
57317;SDS011;43157;50.982;18.132;2022-12-31T02:03:51;21.60;;;8.70;;
57317;SDS011;43157;50.982;18.132;2022-12-31T02:06:18;18.70;;;7.70;;
57317;SDS011;43157;50.982;18.132;2022-12-31T02:08:46;20.30;;;8.00;;
57317;SDS011;43157;50.982;18.132;2022-12-31T02:11:28;21.10;;;7.30;;
57317;SDS011;43157;50.982;18.132;2022-12-31T02:13:57;19.00;;;7.50;;
57317;SDS011;43157;50.982;18.132;2022-12-31T02:28:07;20.60;;;8.50;;
57317;SDS011;43157;50.982;18.132;2022-12-31T02:30:58;18.80;;;8.70;;
57317;SDS011;43157;50.982;18.132;2022-12-31T02:33:34;20.40;;;7.50;;
57317;SDS011;43157;50.982;18.132;2022-12-31T02:36:05;20.30;;;9.90;;
57317;SDS011;43157;50.982;18.132;2022-12-31T02:38:35;19.50;;;8.40;;
57317;SDS011;43157;50.982;18.132;2022-12-31T02:41:10;21.70;;;8.80;;
57317;SDS011;43157;50.982;18.132;2022-12-31T02:43:57;21.40;;;7.90;;
57317;SDS011;43157;50.982;18.132;2022-12-31T02:46:33;22.10;;;8.40;;
57317;SDS011;43157;50.982;18.132;2022-12-31T02:49:07;23.10;;;7.80;;
57317;SDS011;43157;50.982;18.132;2022-12-31T02:51:53;17.40;;;5.90;;
57317;SDS011;43157;50.982;18.132;2022-12-31T02:54:27;23.20;;;8.80;;
57317;SDS011;43157;50.982;18.132;2022-12-31T02:57:02;21.10;;;9.10;;
57317;SDS011;43157;50.982;18.132;2022-12-31T02:59:42;19.60;;;7.80;;
57317;SDS011;43157;50.982;18.132;2022-12-31T03:02:41;22.60;;;7.90;;
57317;SDS011;43157;50.982;18.132;2022-12-31T03:05:08;18.80;;;8.30;;
57317;SDS011;43157;50.982;18.132;2022-12-31T03:07:34;19.90;;;9.10;;
57317;SDS011;43157;50.982;18.132;2022-12-31T03:10:00;18.60;;;7.50;;
57317;SDS011;43157;50.982;18.132;2022-12-31T03:12:26;19.10;;;7.80;;
57317;SDS011;43157;50.982;18.132;2022-12-31T03:20:37;20.20;;;6.90;;
57317;SDS011;43157;50.982;18.132;2022-12-31T03:23:29;19.30;;;7.30;;
57317;SDS011;43157;50.982;18.132;2022-12-31T03:25:55;16.30;;;5.80;;
57317;SDS011;43157;50.982;18.132;2022-12-31T03:28:22;19.30;;;7.60;;
57317;SDS011;43157;50.982;18.132;2022-12-31T03:30:55;18.10;;;7.20;;
57317;SDS011;43157;50.982;18.132;2022-12-31T03:33:22;19.20;;;7.90;;
57317;SDS011;43157;50.982;18.132;2022-12-31T03:35:48;22.50;;;7.30;;
57317;SDS011;43157;50.982;18.132;2022-12-31T03:38:14;19.10;;;7.40;;
57317;SDS011;43157;50.982;18.132;2022-12-31T03:40:42;18.70;;;7.80;;
57317;SDS011;43157;50.982;18.132;2022-12-31T03:43:09;15.40;;;5.90;;
57317;SDS011;43157;50.982;18.132;2022-12-31T03:45:35;14.30;;;6.60;;
57317;SDS011;43157;50.982;18.132;2022-12-31T03:48:01;17.50;;;7.10;;
57317;SDS011;43157;50.982;18.132;2022-12-31T03:50:28;17.60;;;8.20;;
57317;SDS011;43157;50.982;18.132;2022-12-31T03:52:54;20.50;;;8.10;;
57317;SDS011;43157;50.982;18.132;2022-12-31T03:55:20;18.50;;;7.40;;
57317;SDS011;43157;50.982;18.132;2022-12-31T03:57:45;18.80;;;7.80;;
57317;SDS011;43157;50.982;18.132;2022-12-31T04:00:12;15.90;;;6.60;;
57317;SDS011;43157;50.982;18.132;2022-12-31T04:02:40;15.70;;;7.60;;
57317;SDS011;43157;50.982;18.132;2022-12-31T04:05:06;18.20;;;6.80;;
57317;SDS011;43157;50.982;18.132;2022-12-31T04:07:32;17.90;;;6.40;;
57317;SDS011;43157;50.982;18.132;2022-12-31T04:09:58;24.40;;;8.40;;
57317;SDS011;43157;50.982;18.132;2022-12-31T04:12:23;22.30;;;7.40;;
57317;SDS011;43157;50.982;18.132;2022-12-31T04:14:49;16.30;;;6.30;;
57317;SDS011;43157;50.982;18.132;2022-12-31T04:17:15;16.30;;;6.50;;
57317;SDS011;43157;50.982;18.132;2022-12-31T04:19:41;17.30;;;6.20;;
57317;SDS011;43157;50.982;18.132;2022-12-31T04:22:06;18.00;;;7.20;;
57317;SDS011;43157;50.982;18.132;2022-12-31T04:24:32;19.00;;;7.50;;
57317;SDS011;43157;50.982;18.132;2022-12-31T04:26:57;19.30;;;6.40;;
57317;SDS011;43157;50.982;18.132;2022-12-31T04:29:23;20.20;;;7.60;;
57317;SDS011;43157;50.982;18.132;2022-12-31T04:31:49;14.60;;;4.90;;
57317;SDS011;43157;50.982;18.132;2022-12-31T04:34:15;17.30;;;6.90;;
57317;SDS011;43157;50.982;18.132;2022-12-31T04:36:41;17.10;;;5.80;;
57317;SDS011;43157;50.982;18.132;2022-12-31T04:39:06;16.10;;;6.80;;
57317;SDS011;43157;50.982;18.132;2022-12-31T04:41:32;14.40;;;5.80;;
57317;SDS011;43157;50.982;18.132;2022-12-31T04:43:57;15.80;;;5.30;;
57317;SDS011;43157;50.982;18.132;2022-12-31T04:46:27;15.20;;;5.40;;
57317;SDS011;43157;50.982;18.132;2022-12-31T04:48:54;18.50;;;6.60;;
57317;SDS011;43157;50.982;18.132;2022-12-31T04:51:20;14.90;;;5.90;;
57317;SDS011;43157;50.982;18.132;2022-12-31T04:53:46;13.50;;;5.40;;
57317;SDS011;43157;50.982;18.132;2022-12-31T04:56:13;16.10;;;6.30;;
57317;SDS011;43157;50.982;18.132;2022-12-31T04:58:39;14.40;;;6.00;;
57317;SDS011;43157;50.982;18.132;2022-12-31T05:01:05;14.90;;;4.90;;
57317;SDS011;43157;50.982;18.132;2022-12-31T05:03:31;15.80;;;5.40;;
57317;SDS011;43157;50.982;18.132;2022-12-31T05:06:02;15.30;;;5.50;;
57317;SDS011;43157;50.982;18.132;2022-12-31T05:08:38;12.60;;;5.10;;
57317;SDS011;43157;50.982;18.132;2022-12-31T05:11:04;14.70;;;5.70;;
57317;SDS011;43157;50.982;18.132;2022-12-31T05:13:29;10.80;;;4.30;;
57317;SDS011;43157;50.982;18.132;2022-12-31T05:15:55;15.30;;;5.90;;
57317;SDS011;43157;50.982;18.132;2022-12-31T05:18:21;14.20;;;5.40;;
57317;SDS011;43157;50.982;18.132;2022-12-31T05:20:47;14.60;;;5.50;;
57317;SDS011;43157;50.982;18.132;2022-12-31T05:23:13;14.20;;;4.90;;
57317;SDS011;43157;50.982;18.132;2022-12-31T05:25:40;14.60;;;5.10;;
57317;SDS011;43157;50.982;18.132;2022-12-31T05:28:07;11.80;;;4.10;;
57317;SDS011;43157;50.982;18.132;2022-12-31T05:30:32;14.30;;;5.20;;
57317;SDS011;43157;50.982;18.132;2022-12-31T05:32:58;12.50;;;4.80;;
57317;SDS011;43157;50.982;18.132;2022-12-31T05:35:23;12.90;;;4.70;;
57317;SDS011;43157;50.982;18.132;2022-12-31T05:37:49;12.80;;;4.70;;
57317;SDS011;43157;50.982;18.132;2022-12-31T05:40:15;11.50;;;3.20;;
57317;SDS011;43157;50.982;18.132;2022-12-31T05:42:41;11.40;;;3.70;;
57317;SDS011;43157;50.982;18.132;2022-12-31T05:45:06;12.20;;;3.60;;
57317;SDS011;43157;50.982;18.132;2022-12-31T05:47:32;12.90;;;4.40;;
57317;SDS011;43157;50.982;18.132;2022-12-31T05:49:58;10.90;;;3.70;;
57317;SDS011;43157;50.982;18.132;2022-12-31T05:52:23;10.60;;;3.90;;
57317;SDS011;43157;50.982;18.132;2022-12-31T05:54:49;12.80;;;3.80;;
57317;SDS011;43157;50.982;18.132;2022-12-31T05:57:15;11.80;;;4.50;;
57317;SDS011;43157;50.982;18.132;2022-12-31T05:59:40;11.50;;;3.40;;
57317;SDS011;43157;50.982;18.132;2022-12-31T06:02:06;12.00;;;4.00;;
57317;SDS011;43157;50.982;18.132;2022-12-31T06:04:31;10.20;;;4.10;;
57317;SDS011;43157;50.982;18.132;2022-12-31T06:06:57;9.10;;;3.20;;
57317;SDS011;43157;50.982;18.132;2022-12-31T06:09:22;12.30;;;3.90;;
57317;SDS011;43157;50.982;18.132;2022-12-31T06:11:48;10.10;;;2.80;;
57317;SDS011;43157;50.982;18.132;2022-12-31T06:14:14;12.70;;;4.10;;
57317;SDS011;43157;50.982;18.132;2022-12-31T06:16:40;11.40;;;3.40;;
57317;SDS011;43157;50.982;18.132;2022-12-31T06:19:06;10.90;;;3.20;;
57317;SDS011;43157;50.982;18.132;2022-12-31T06:21:32;12.30;;;4.10;;
57317;SDS011;43157;50.982;18.132;2022-12-31T06:23:57;9.30;;;3.30;;
57317;SDS011;43157;50.982;18.132;2022-12-31T06:26:23;8.60;;;2.80;;
57317;SDS011;43157;50.982;18.132;2022-12-31T06:28:50;13.70;;;4.30;;
57317;SDS011;43157;50.982;18.132;2022-12-31T06:31:15;17.80;;;5.90;;
57317;SDS011;43157;50.982;18.132;2022-12-31T06:33:41;6.30;;;1.90;;
57317;SDS011;43157;50.982;18.132;2022-12-31T06:36:08;12.00;;;3.50;;
57317;SDS011;43157;50.982;18.132;2022-12-31T06:38:36;10.80;;;2.80;;
57317;SDS011;43157;50.982;18.132;2022-12-31T06:41:12;8.80;;;3.00;;
57317;SDS011;43157;50.982;18.132;2022-12-31T06:43:38;10.50;;;3.10;;
57317;SDS011;43157;50.982;18.132;2022-12-31T06:46:06;8.80;;;2.80;;
57317;SDS011;43157;50.982;18.132;2022-12-31T06:48:33;7.50;;;2.30;;
57317;SDS011;43157;50.982;18.132;2022-12-31T06:51:02;8.20;;;2.70;;
57317;SDS011;43157;50.982;18.132;2022-12-31T06:53:29;9.10;;;2.80;;
57317;SDS011;43157;50.982;18.132;2022-12-31T06:55:55;8.20;;;2.50;;
57317;SDS011;43157;50.982;18.132;2022-12-31T06:58:21;10.90;;;3.20;;
57317;SDS011;43157;50.982;18.132;2022-12-31T07:06:24;10.00;;;3.00;;
57317;SDS011;43157;50.982;18.132;2022-12-31T07:09:04;10.70;;;2.30;;
57317;SDS011;43157;50.982;18.132;2022-12-31T07:11:41;10.80;;;3.80;;
57317;SDS011;43157;50.982;18.132;2022-12-31T07:21:58;14.30;;;4.20;;
57317;SDS011;43157;50.982;18.132;2022-12-31T07:24:24;12.70;;;4.30;;
57317;SDS011;43157;50.982;18.132;2022-12-31T07:37:26;10.40;;;3.30;;
57317;SDS011;43157;50.982;18.132;2022-12-31T07:40:10;10.60;;;3.30;;
57317;SDS011;43157;50.982;18.132;2022-12-31T07:42:58;9.30;;;2.30;;
57317;SDS011;43157;50.982;18.132;2022-12-31T07:45:46;8.50;;;2.80;;
57317;SDS011;43157;50.982;18.132;2022-12-31T07:48:17;9.10;;;3.10;;
57317;SDS011;43157;50.982;18.132;2022-12-31T07:50:49;10.50;;;3.30;;
57317;SDS011;43157;50.982;18.132;2022-12-31T07:53:19;15.40;;;5.50;;
57317;SDS011;43157;50.982;18.132;2022-12-31T07:55:45;13.40;;;5.40;;
57317;SDS011;43157;50.982;18.132;2022-12-31T07:58:18;19.70;;;6.10;;
57317;SDS011;43157;50.982;18.132;2022-12-31T08:00:47;17.10;;;5.50;;
57317;SDS011;43157;50.982;18.132;2022-12-31T08:03:16;17.00;;;7.00;;
57317;SDS011;43157;50.982;18.132;2022-12-31T08:11:54;21.30;;;7.30;;
57317;SDS011;43157;50.982;18.132;2022-12-31T08:14:22;24.90;;;7.80;;
57317;SDS011;43157;50.982;18.132;2022-12-31T08:16:48;21.10;;;6.30;;
57317;SDS011;43157;50.982;18.132;2022-12-31T08:24:33;15.40;;;5.00;;
57317;SDS011;43157;50.982;18.132;2022-12-31T08:30:07;9.70;;;3.00;;
57317;SDS011;43157;50.982;18.132;2022-12-31T08:38:26;9.00;;;2.60;;
57317;SDS011;43157;50.982;18.132;2022-12-31T08:49:34;9.30;;;2.70;;
57317;SDS011;43157;50.982;18.132;2022-12-31T08:52:00;12.60;;;4.00;;
57317;SDS011;43157;50.982;18.132;2022-12-31T08:54:27;11.80;;;3.70;;
57317;SDS011;43157;50.982;18.132;2022-12-31T09:08:18;10.30;;;4.00;;
57317;SDS011;43157;50.982;18.132;2022-12-31T09:10:54;12.00;;;4.50;;
57317;SDS011;43157;50.982;18.132;2022-12-31T09:16:18;13.10;;;4.90;;
57317;SDS011;43157;50.982;18.132;2022-12-31T09:18:53;12.20;;;3.70;;
57317;SDS011;43157;50.982;18.132;2022-12-31T09:21:18;11.80;;;4.10;;
57317;SDS011;43157;50.982;18.132;2022-12-31T09:23:44;11.30;;;3.90;;
57317;SDS011;43157;50.982;18.132;2022-12-31T09:36:28;10.80;;;3.90;;
57317;SDS011;43157;50.982;18.132;2022-12-31T09:52:21;14.40;;;5.00;;
57317;SDS011;43157;50.982;18.132;2022-12-31T10:08:46;11.70;;;4.20;;
57317;SDS011;43157;50.982;18.132;2022-12-31T10:11:46;13.20;;;4.00;;
57317;SDS011;43157;50.982;18.132;2022-12-31T10:22:41;9.90;;;3.90;;
57317;SDS011;43157;50.982;18.132;2022-12-31T10:25:26;10.20;;;3.40;;
57317;SDS011;43157;50.982;18.132;2022-12-31T10:33:59;10.50;;;3.90;;
57317;SDS011;43157;50.982;18.132;2022-12-31T10:36:54;10.70;;;3.60;;
57317;SDS011;43157;50.982;18.132;2022-12-31T11:03:53;11.20;;;4.00;;
57317;SDS011;43157;50.982;18.132;2022-12-31T11:25:20;6.90;;;2.60;;
57317;SDS011;43157;50.982;18.132;2022-12-31T11:27:51;8.50;;;2.50;;
57317;SDS011;43157;50.982;18.132;2022-12-31T11:30:35;9.60;;;3.40;;
57317;SDS011;43157;50.982;18.132;2022-12-31T11:33:26;10.80;;;4.40;;
57317;SDS011;43157;50.982;18.132;2022-12-31T11:38:50;10.90;;;4.40;;
57317;SDS011;43157;50.982;18.132;2022-12-31T11:41:32;11.70;;;4.40;;
57317;SDS011;43157;50.982;18.132;2022-12-31T11:58:44;20.90;;;8.80;;
57317;SDS011;43157;50.982;18.132;2022-12-31T12:04:02;17.80;;;7.70;;
57317;SDS011;43157;50.982;18.132;2022-12-31T12:06:29;18.90;;;7.10;;
57317;SDS011;43157;50.982;18.132;2022-12-31T12:09:00;16.10;;;5.40;;
57317;SDS011;43157;50.982;18.132;2022-12-31T12:11:29;19.70;;;7.90;;
57317;SDS011;43157;50.982;18.132;2022-12-31T12:13:58;17.80;;;7.20;;
57317;SDS011;43157;50.982;18.132;2022-12-31T12:16:24;18.30;;;6.80;;
57317;SDS011;43157;50.982;18.132;2022-12-31T12:19:05;17.10;;;5.90;;
57317;SDS011;43157;50.982;18.132;2022-12-31T12:21:32;15.20;;;5.30;;
57317;SDS011;43157;50.982;18.132;2022-12-31T12:24:03;11.90;;;3.70;;
57317;SDS011;43157;50.982;18.132;2022-12-31T12:28:58;17.20;;;6.30;;
57317;SDS011;43157;50.982;18.132;2022-12-31T12:31:25;11.80;;;4.40;;
57317;SDS011;43157;50.982;18.132;2022-12-31T12:33:52;17.00;;;6.30;;
57317;SDS011;43157;50.982;18.132;2022-12-31T12:36:18;15.80;;;5.90;;
57317;SDS011;43157;50.982;18.132;2022-12-31T12:38:45;9.70;;;3.20;;
57317;SDS011;43157;50.982;18.132;2022-12-31T12:41:17;10.30;;;3.40;;
57317;SDS011;43157;50.982;18.132;2022-12-31T12:46:20;11.40;;;4.10;;
57317;SDS011;43157;50.982;18.132;2022-12-31T12:48:53;9.50;;;3.00;;
57317;SDS011;43157;50.982;18.132;2022-12-31T12:54:17;13.90;;;5.30;;
57317;SDS011;43157;50.982;18.132;2022-12-31T12:56:51;13.40;;;4.20;;
57317;SDS011;43157;50.982;18.132;2022-12-31T12:59:50;14.50;;;5.60;;
57317;SDS011;43157;50.982;18.132;2022-12-31T13:29:16;13.00;;;5.50;;
57317;SDS011;43157;50.982;18.132;2022-12-31T13:31:45;15.70;;;5.80;;
57317;SDS011;43157;50.982;18.132;2022-12-31T13:34:14;15.10;;;5.80;;
57317;SDS011;43157;50.982;18.132;2022-12-31T13:36:42;14.90;;;5.80;;
57317;SDS011;43157;50.982;18.132;2022-12-31T13:39:15;14.30;;;5.80;;
57317;SDS011;43157;50.982;18.132;2022-12-31T13:41:47;20.00;;;5.90;;
57317;SDS011;43157;50.982;18.132;2022-12-31T13:44:19;15.00;;;5.40;;
57317;SDS011;43157;50.982;18.132;2022-12-31T13:47:05;13.50;;;5.00;;
57317;SDS011;43157;50.982;18.132;2022-12-31T13:49:41;16.60;;;6.70;;
57317;SDS011;43157;50.982;18.132;2022-12-31T13:54:47;11.90;;;4.50;;
57317;SDS011;43157;50.982;18.132;2022-12-31T13:57:22;14.80;;;5.70;;
57317;SDS011;43157;50.982;18.132;2022-12-31T14:00:01;11.50;;;4.90;;
57317;SDS011;43157;50.982;18.132;2022-12-31T14:04:59;12.30;;;4.80;;
57317;SDS011;43157;50.982;18.132;2022-12-31T14:07:34;17.70;;;7.00;;
57317;SDS011;43157;50.982;18.132;2022-12-31T14:10:02;12.80;;;5.00;;
57317;SDS011;43157;50.982;18.132;2022-12-31T14:20:46;21.80;;;9.40;;
57317;SDS011;43157;50.982;18.132;2022-12-31T14:26:25;18.20;;;9.90;;
57317;SDS011;43157;50.982;18.132;2022-12-31T14:37:04;17.90;;;6.40;;
57317;SDS011;43157;50.982;18.132;2022-12-31T14:39:39;23.30;;;8.20;;
57317;SDS011;43157;50.982;18.132;2022-12-31T14:42:30;17.70;;;7.70;;
57317;SDS011;43157;50.982;18.132;2022-12-31T14:45:34;14.40;;;6.20;;
57317;SDS011;43157;50.982;18.132;2022-12-31T14:53:25;23.70;;;10.20;;
57317;SDS011;43157;50.982;18.132;2022-12-31T14:55:59;24.00;;;9.40;;
57317;SDS011;43157;50.982;18.132;2022-12-31T14:58:33;23.40;;;10.50;;
57317;SDS011;43157;50.982;18.132;2022-12-31T15:01:04;23.60;;;11.00;;
57317;SDS011;43157;50.982;18.132;2022-12-31T15:03:39;21.20;;;8.50;;
57317;SDS011;43157;50.982;18.132;2022-12-31T15:06:13;22.50;;;10.50;;
57317;SDS011;43157;50.982;18.132;2022-12-31T15:19:48;24.30;;;12.80;;
57317;SDS011;43157;50.982;18.132;2022-12-31T15:24:59;26.60;;;11.90;;
57317;SDS011;43157;50.982;18.132;2022-12-31T15:27:33;22.00;;;10.10;;
57317;SDS011;43157;50.982;18.132;2022-12-31T15:30:01;25.20;;;10.20;;
57317;SDS011;43157;50.982;18.132;2022-12-31T15:32:35;22.50;;;8.90;;
57317;SDS011;43157;50.982;18.132;2022-12-31T15:35:26;23.60;;;10.10;;
57317;SDS011;43157;50.982;18.132;2022-12-31T15:40:43;36.90;;;18.80;;
57317;SDS011;43157;50.982;18.132;2022-12-31T15:43:13;32.80;;;15.40;;
57317;SDS011;43157;50.982;18.132;2022-12-31T15:45:49;20.70;;;10.00;;
57317;SDS011;43157;50.982;18.132;2022-12-31T15:51:24;24.30;;;10.50;;
57317;SDS011;43157;50.982;18.132;2022-12-31T15:54:19;21.00;;;8.10;;
57317;SDS011;43157;50.982;18.132;2022-12-31T15:57:14;21.90;;;8.80;;
57317;SDS011;43157;50.982;18.132;2022-12-31T15:59:45;25.00;;;9.80;;
57317;SDS011;43157;50.982;18.132;2022-12-31T16:02:20;26.90;;;12.10;;
57317;SDS011;43157;50.982;18.132;2022-12-31T16:04:48;27.30;;;11.70;;
57317;SDS011;43157;50.982;18.132;2022-12-31T16:07:14;36.00;;;17.10;;
57317;SDS011;43157;50.982;18.132;2022-12-31T16:09:41;43.10;;;21.80;;
57317;SDS011;43157;50.982;18.132;2022-12-31T16:12:11;28.60;;;12.30;;
57317;SDS011;43157;50.982;18.132;2022-12-31T16:14:43;30.40;;;13.10;;
57317;SDS011;43157;50.982;18.132;2022-12-31T16:19:58;49.50;;;18.20;;
57317;SDS011;43157;50.982;18.132;2022-12-31T16:25:04;42.50;;;12.90;;
57317;SDS011;43157;50.982;18.132;2022-12-31T16:27:31;39.50;;;15.40;;
57317;SDS011;43157;50.982;18.132;2022-12-31T16:30:06;31.10;;;11.10;;
57317;SDS011;43157;50.982;18.132;2022-12-31T16:32:40;38.50;;;16.40;;
57317;SDS011;43157;50.982;18.132;2022-12-31T16:40:32;35.00;;;15.20;;
57317;SDS011;43157;50.982;18.132;2022-12-31T16:42:58;26.60;;;11.20;;
57317;SDS011;43157;50.982;18.132;2022-12-31T16:48:14;24.40;;;11.20;;
57317;SDS011;43157;50.982;18.132;2022-12-31T16:50:44;24.90;;;10.50;;
57317;SDS011;43157;50.982;18.132;2022-12-31T16:53:17;24.90;;;10.70;;
57317;SDS011;43157;50.982;18.132;2022-12-31T16:55:51;26.90;;;11.90;;
57317;SDS011;43157;50.982;18.132;2022-12-31T16:58:34;24.20;;;10.20;;
57317;SDS011;43157;50.982;18.132;2022-12-31T17:03:43;29.00;;;10.90;;
57317;SDS011;43157;50.982;18.132;2022-12-31T17:06:13;33.10;;;12.40;;
57317;SDS011;43157;50.982;18.132;2022-12-31T17:08:44;25.50;;;10.90;;
57317;SDS011;43157;50.982;18.132;2022-12-31T17:11:25;21.70;;;9.10;;
57317;SDS011;43157;50.982;18.132;2022-12-31T17:16:31;18.10;;;7.80;;
57317;SDS011;43157;50.982;18.132;2022-12-31T17:19:01;22.40;;;10.80;;
57317;SDS011;43157;50.982;18.132;2022-12-31T17:21:28;15.30;;;6.30;;
57317;SDS011;43157;50.982;18.132;2022-12-31T17:23:55;15.60;;;6.30;;
57317;SDS011;43157;50.982;18.132;2022-12-31T17:26:32;16.40;;;6.50;;
57317;SDS011;43157;50.982;18.132;2022-12-31T17:28:59;15.20;;;5.90;;
57317;SDS011;43157;50.982;18.132;2022-12-31T17:31:32;14.20;;;6.10;;
57317;SDS011;43157;50.982;18.132;2022-12-31T17:36:37;16.90;;;6.20;;
57317;SDS011;43157;50.982;18.132;2022-12-31T17:39:40;16.80;;;6.80;;
57317;SDS011;43157;50.982;18.132;2022-12-31T17:45:02;14.80;;;6.00;;
57317;SDS011;43157;50.982;18.132;2022-12-31T17:47:34;24.70;;;11.10;;
57317;SDS011;43157;50.982;18.132;2022-12-31T17:52:34;19.00;;;8.10;;
57317;SDS011;43157;50.982;18.132;2022-12-31T17:54:59;16.00;;;6.50;;
57317;SDS011;43157;50.982;18.132;2022-12-31T17:57:25;15.70;;;5.80;;
57317;SDS011;43157;50.982;18.132;2022-12-31T17:59:53;17.70;;;6.50;;
57317;SDS011;43157;50.982;18.132;2022-12-31T18:02:19;20.50;;;9.20;;
57317;SDS011;43157;50.982;18.132;2022-12-31T18:04:44;15.60;;;6.90;;
57317;SDS011;43157;50.982;18.132;2022-12-31T18:07:10;16.90;;;7.10;;
57317;SDS011;43157;50.982;18.132;2022-12-31T18:09:35;14.20;;;6.30;;
57317;SDS011;43157;50.982;18.132;2022-12-31T18:12:01;16.70;;;7.10;;
57317;SDS011;43157;50.982;18.132;2022-12-31T18:14:28;17.50;;;9.10;;
57317;SDS011;43157;50.982;18.132;2022-12-31T18:16:54;17.30;;;7.20;;
57317;SDS011;43157;50.982;18.132;2022-12-31T18:19:19;21.00;;;8.50;;
57317;SDS011;43157;50.982;18.132;2022-12-31T18:21:45;27.60;;;12.50;;
57317;SDS011;43157;50.982;18.132;2022-12-31T18:24:14;19.80;;;8.80;;
57317;SDS011;43157;50.982;18.132;2022-12-31T18:26:43;20.10;;;10.10;;
57317;SDS011;43157;50.982;18.132;2022-12-31T18:29:15;28.10;;;13.20;;
57317;SDS011;43157;50.982;18.132;2022-12-31T18:31:45;23.80;;;9.90;;
57317;SDS011;43157;50.982;18.132;2022-12-31T18:34:13;21.70;;;10.00;;
57317;SDS011;43157;50.982;18.132;2022-12-31T18:36:40;22.70;;;9.60;;
57317;SDS011;43157;50.982;18.132;2022-12-31T18:39:06;17.00;;;7.20;;
57317;SDS011;43157;50.982;18.132;2022-12-31T18:41:46;20.60;;;8.20;;
57317;SDS011;43157;50.982;18.132;2022-12-31T18:44:14;20.10;;;8.70;;
57317;SDS011;43157;50.982;18.132;2022-12-31T18:46:40;23.70;;;9.90;;
57317;SDS011;43157;50.982;18.132;2022-12-31T18:49:06;19.30;;;7.70;;
57317;SDS011;43157;50.982;18.132;2022-12-31T18:51:32;19.60;;;7.60;;
57317;SDS011;43157;50.982;18.132;2022-12-31T18:53:59;15.70;;;7.00;;
57317;SDS011;43157;50.982;18.132;2022-12-31T18:56:25;18.30;;;7.40;;
57317;SDS011;43157;50.982;18.132;2022-12-31T18:58:51;16.50;;;7.40;;
57317;SDS011;43157;50.982;18.132;2022-12-31T19:01:25;16.00;;;6.40;;
57317;SDS011;43157;50.982;18.132;2022-12-31T19:03:53;15.80;;;6.30;;
57317;SDS011;43157;50.982;18.132;2022-12-31T19:06:21;15.50;;;6.10;;
57317;SDS011;43157;50.982;18.132;2022-12-31T19:08:46;17.30;;;7.50;;
57317;SDS011;43157;50.982;18.132;2022-12-31T19:11:12;17.20;;;6.90;;
57317;SDS011;43157;50.982;18.132;2022-12-31T19:13:38;14.00;;;6.30;;
57317;SDS011;43157;50.982;18.132;2022-12-31T19:16:04;16.60;;;6.70;;
57317;SDS011;43157;50.982;18.132;2022-12-31T19:18:31;16.80;;;6.60;;
57317;SDS011;43157;50.982;18.132;2022-12-31T19:20:58;21.80;;;8.90;;
57317;SDS011;43157;50.982;18.132;2022-12-31T19:23:24;22.90;;;8.90;;
57317;SDS011;43157;50.982;18.132;2022-12-31T19:25:50;17.50;;;6.80;;
57317;SDS011;43157;50.982;18.132;2022-12-31T19:28:16;17.70;;;6.70;;
57317;SDS011;43157;50.982;18.132;2022-12-31T19:30:43;19.40;;;8.40;;
57317;SDS011;43157;50.982;18.132;2022-12-31T19:33:09;17.20;;;7.20;;
57317;SDS011;43157;50.982;18.132;2022-12-31T19:35:35;17.20;;;7.10;;
57317;SDS011;43157;50.982;18.132;2022-12-31T19:38:01;17.00;;;6.50;;
57317;SDS011;43157;50.982;18.132;2022-12-31T19:40:28;14.80;;;5.60;;
57317;SDS011;43157;50.982;18.132;2022-12-31T19:42:55;19.70;;;7.00;;
57317;SDS011;43157;50.982;18.132;2022-12-31T19:45:22;16.10;;;5.80;;
57317;SDS011;43157;50.982;18.132;2022-12-31T19:47:49;16.00;;;5.80;;
57317;SDS011;43157;50.982;18.132;2022-12-31T19:50:17;16.00;;;6.30;;
57317;SDS011;43157;50.982;18.132;2022-12-31T19:52:48;13.00;;;5.10;;